createdAt,value
2019-04-06T00:02:38.623Z,11.85
2019-04-06T00:05:10.866Z,11.97
2019-04-06T00:07:42.244Z,11.93
2019-04-06T00:10:13.887Z,11.97
2019-04-06T00:12:45.444Z,11.38
2019-04-06T00:15:17.138Z,11.50
2019-04-06T00:17:48.655Z,12.07
2019-04-06T00:20:20.437Z,10.53
2019-04-06T00:22:51.906Z,11.30
2019-04-06T00:25:23.913Z,12.35
2019-04-06T00:27:55.682Z,12.15
2019-04-06T00:30:29.566Z,11.05
2019-04-06T00:33:03.132Z,11.70
2019-04-06T00:35:36.092Z,11.95
2019-04-06T00:38:08.191Z,11.15
2019-04-06T00:40:39.771Z,11.05
2019-04-06T00:43:11.886Z,11.78
2019-04-06T00:45:43.617Z,11.90
2019-04-06T00:48:15.156Z,11.55
2019-04-06T00:50:46.925Z,12.78
2019-04-06T00:53:18.738Z,11.73
2019-04-06T00:55:55.467Z,12.55
2019-04-06T00:58:23.626Z,11.25
2019-04-06T01:00:55.924Z,13.00
2019-04-06T01:03:27.396Z,11.30
2019-04-06T01:05:59.016Z,11.15
2019-04-06T01:08:30.498Z,12.68
2019-04-06T01:11:02.123Z,10.32
2019-04-06T01:13:33.602Z,12.68
2019-04-06T01:16:05.261Z,11.85
2019-04-06T01:18:36.772Z,12.37
2019-04-06T01:21:08.341Z,12.78
2019-04-06T01:23:40.019Z,12.40
2019-04-06T01:26:11.674Z,12.28
2019-04-06T01:28:45.331Z,11.60
2019-04-06T01:31:17.397Z,12.30
2019-04-06T01:33:49.049Z,12.98
2019-04-06T01:36:20.607Z,12.18
2019-04-06T01:38:52.240Z,12.43
2019-04-06T01:41:24.417Z,12.37
2019-04-06T01:43:56.599Z,11.53
2019-04-06T01:46:28.694Z,11.65
2019-04-06T01:49:00.332Z,11.55
2019-04-06T01:51:32.104Z,12.50
2019-04-06T01:54:03.876Z,13.18
2019-04-06T01:56:35.961Z,12.93
2019-04-06T01:59:07.636Z,13.60
2019-04-06T02:01:57.481Z,14.33
2019-04-06T02:04:29.092Z,13.38
2019-04-06T02:07:00.853Z,13.10
2019-04-06T02:09:32.479Z,13.80
2019-04-06T02:12:04.416Z,13.88
2019-04-06T02:14:36.477Z,13.08
2019-04-06T02:17:08.256Z,13.78
2019-04-06T02:19:39.981Z,13.30
2019-04-06T02:22:11.841Z,12.93
2019-04-06T02:24:43.622Z,14.13
2019-04-06T02:27:15.245Z,13.30
2019-04-06T02:29:49.138Z,13.72
2019-04-06T02:32:22.279Z,14.03
2019-04-06T02:34:55.832Z,12.68
2019-04-06T02:37:29.323Z,13.80
2019-04-06T02:40:14.718Z,13.32
2019-04-06T02:42:48.198Z,13.05
2019-04-06T02:45:20.242Z,12.55
2019-04-06T02:47:51.755Z,12.90
2019-04-06T02:50:23.525Z,13.20
2019-04-06T02:52:55.129Z,12.58
2019-04-06T02:55:26.596Z,13.05
2019-04-06T02:57:58.324Z,13.58
2019-04-06T03:00:29.937Z,13.10
2019-04-06T03:03:01.555Z,12.60
2019-04-06T03:05:33.239Z,12.67
2019-04-06T03:08:04.750Z,13.38
2019-04-06T03:10:36.434Z,13.25
2019-04-06T03:13:07.915Z,13.20
2019-04-06T03:15:39.791Z,12.60
2019-04-06T03:18:11.351Z,12.58
2019-04-06T03:20:42.985Z,12.93
2019-04-06T03:23:14.669Z,12.77
2019-04-06T03:25:46.278Z,13.25
2019-04-06T03:28:17.878Z,12.35
2019-04-06T03:30:49.340Z,13.03
2019-04-06T03:33:21.295Z,12.58
2019-04-06T03:35:53.283Z,12.95
2019-04-06T03:38:24.899Z,12.68
2019-04-06T03:40:56.844Z,13.28
2019-04-06T03:43:28.321Z,12.50
2019-04-06T03:46:00.002Z,13.50
2019-04-06T03:48:31.976Z,12.95
2019-04-06T03:51:03.859Z,13.22
2019-04-06T03:53:35.601Z,12.50
2019-04-06T03:56:07.205Z,12.95
2019-04-06T03:58:39.041Z,13.20
2019-04-06T04:01:10.618Z,12.78
2019-04-06T04:03:42.508Z,12.70
2019-04-06T04:06:13.923Z,13.30
2019-04-06T04:08:45.756Z,12.60
2019-04-06T04:11:17.609Z,12.70
2019-04-06T04:13:49.328Z,12.78
2019-04-06T04:16:21.240Z,12.13
2019-04-06T04:18:53.147Z,12.83
2019-04-06T04:21:24.923Z,12.33
2019-04-06T04:23:57.763Z,12.63
2019-04-06T04:26:29.267Z,12.75
2019-04-06T04:29:00.730Z,12.18
2019-04-06T04:31:32.283Z,12.40
2019-04-06T04:34:03.936Z,12.68
2019-04-06T04:36:36.389Z,12.10
2019-04-06T04:39:09.079Z,12.80
2019-04-06T04:41:40.773Z,12.10
2019-04-06T04:44:12.485Z,12.25
2019-04-06T04:46:44.007Z,12.55
2019-04-06T04:49:15.525Z,12.88
2019-04-06T04:51:47.308Z,12.47
2019-04-06T04:54:19.284Z,12.00
2019-04-06T04:56:51.019Z,12.63
2019-04-06T04:59:22.597Z,12.47
2019-04-06T05:01:54.286Z,12.23
2019-04-06T05:04:25.901Z,11.60
2019-04-06T05:06:57.323Z,12.23
2019-04-06T05:09:28.960Z,12.47
2019-04-06T05:12:00.910Z,12.70
2019-04-06T05:15:09.778Z,12.85
2019-04-06T05:17:41.299Z,12.23
2019-04-06T05:20:13.598Z,12.40
2019-04-06T05:22:45.254Z,11.93
2019-04-06T05:25:16.802Z,11.60
2019-04-06T05:27:52.579Z,13.55
2019-04-06T05:30:21.659Z,10.50
2019-04-06T05:32:53.717Z,10.30
2019-04-06T05:35:25.467Z,11.43
2019-04-06T05:37:56.998Z,10.38
2019-04-06T05:40:28.530Z,11.70
2019-04-06T05:43:00.137Z,11.03
2019-04-06T05:45:32.261Z,9.93
2019-04-06T05:48:04.084Z,10.40
2019-04-06T05:50:35.563Z,10.63
2019-04-06T05:53:07.166Z,10.82
2019-04-06T05:55:39.040Z,10.90
2019-04-06T18:26:15.810Z,19.07
2019-04-06T18:28:48.335Z,23.80
2019-04-06T18:31:21.465Z,26.70
2019-04-06T18:33:53.587Z,30.08
2019-04-06T18:36:27.640Z,30.72
2019-04-06T18:39:00.951Z,28.75
2019-04-06T18:41:34.644Z,22.25
2019-04-06T18:44:07.145Z,22.85
2019-04-06T18:46:39.358Z,20.37
2019-04-06T18:49:10.957Z,15.50
2019-04-06T18:51:43.367Z,15.03
2019-04-06T18:54:14.885Z,14.70
2019-04-06T18:56:47.096Z,14.73
2019-04-06T18:59:19.443Z,12.85
2019-04-06T19:01:51.072Z,12.90
2019-04-06T19:04:22.858Z,14.93
2019-04-06T19:06:54.571Z,12.75
2019-04-06T19:09:26.799Z,34.80
2019-04-06T19:11:58.601Z,25.62
2019-04-06T19:14:30.593Z,36.65
2019-04-06T19:17:02.455Z,38.58
2019-04-06T19:19:35.278Z,41.98
2019-04-06T19:22:07.158Z,36.53
2019-04-06T19:24:39.595Z,50.70
2019-04-06T19:27:15.232Z,40.23
2019-04-06T19:29:47.439Z,29.15
2019-04-06T19:32:19.687Z,19.37
2019-04-06T19:34:51.618Z,14.75
2019-04-06T19:37:23.815Z,15.50
2019-04-06T19:39:55.823Z,15.70
2019-04-06T19:42:27.484Z,16.20
2019-04-06T19:44:59.218Z,16.40
2019-04-06T19:47:32.364Z,15.83
2019-04-06T19:50:04.859Z,16.82
2019-04-06T19:52:36.389Z,16.62
2019-04-06T19:55:10.104Z,16.05
2019-04-06T19:57:41.840Z,16.05
2019-04-06T20:00:15.709Z,16.40
2019-04-06T20:02:47.652Z,14.40
2019-04-06T20:05:19.638Z,14.90
2019-04-06T20:07:51.515Z,19.55
2019-04-06T20:10:23.102Z,16.73
2019-04-06T20:12:55.253Z,18.25
2019-04-06T20:15:27.096Z,26.85
2019-04-06T20:17:59.112Z,21.62
2019-04-06T20:20:31.524Z,19.92
2019-04-06T20:23:03.368Z,21.23
2019-04-06T20:25:35.107Z,17.40
2019-04-06T20:28:06.807Z,16.07
2019-04-06T20:30:38.555Z,14.50
2019-04-06T20:33:11.027Z,15.40
2019-04-06T20:35:43.031Z,14.95
2019-04-06T20:38:15.120Z,15.60
2019-04-06T20:40:47.113Z,21.33
2019-04-06T20:43:19.732Z,20.70
2019-04-06T20:45:51.253Z,19.00
2019-04-06T20:48:23.099Z,23.90
2019-04-06T20:50:55.231Z,18.70
2019-04-06T20:53:26.642Z,17.40
2019-04-06T20:55:58.492Z,18.50
2019-04-06T20:58:31.288Z,17.85
2019-04-06T21:01:02.971Z,16.35
2019-04-06T21:03:34.869Z,17.05
2019-04-06T21:06:06.504Z,15.83
2019-04-06T21:08:39.003Z,15.68
2019-04-06T21:11:10.837Z,16.30
2019-04-06T21:13:42.584Z,16.70
2019-04-06T21:16:15.291Z,15.55
2019-04-06T21:18:47.011Z,16.12
2019-04-06T21:21:18.951Z,15.90
2019-04-06T21:23:51.099Z,14.78
2019-04-06T21:26:23.654Z,16.17
2019-04-06T21:28:55.685Z,16.00
2019-04-06T21:31:27.422Z,15.30
2019-04-06T21:34:09.766Z,15.80
2019-04-06T21:36:33.409Z,14.60
2019-04-06T21:39:07.069Z,14.50
2019-04-06T21:41:39.609Z,14.70
2019-04-06T21:44:11.321Z,14.35
2019-04-06T21:46:43.453Z,16.20
2019-04-06T21:49:15.551Z,13.15
2019-04-06T21:51:49.365Z,14.03
2019-04-06T21:54:21.272Z,14.78
2019-04-06T21:56:53.454Z,14.55
2019-04-06T21:59:25.731Z,14.18
2019-04-06T22:01:58.071Z,14.03
2019-04-06T22:04:30.368Z,15.00
2019-04-06T22:07:02.315Z,13.88
2019-04-06T22:09:34.126Z,13.50
2019-04-06T22:12:06.162Z,14.58
2019-04-06T22:14:38.513Z,15.35
2019-04-06T22:17:10.885Z,13.45
2019-04-06T22:19:42.598Z,14.95
2019-04-06T22:22:14.949Z,13.50
2019-04-06T22:24:47.258Z,14.40
2019-04-06T22:27:18.978Z,15.00
2019-04-06T22:29:51.135Z,15.58
2019-04-06T22:32:24.627Z,14.23
2019-04-06T22:34:57.911Z,14.43
2019-04-06T22:37:30.191Z,15.05
2019-04-06T22:40:02.406Z,16.37
2019-04-06T22:42:34.313Z,13.98
2019-04-06T22:45:07.164Z,14.60
2019-04-06T22:47:39.355Z,15.38
2019-04-06T22:50:12.022Z,14.30
2019-04-06T22:52:45.228Z,14.93
2019-04-06T22:55:17.713Z,14.70
2019-04-06T22:57:50.457Z,16.17
2019-04-06T23:00:30.502Z,16.48
2019-04-06T23:03:03.988Z,14.93
2019-04-06T23:05:37.418Z,15.30
2019-04-06T23:08:09.820Z,14.70
2019-04-06T23:10:42.147Z,15.78
2019-04-06T23:13:14.968Z,15.43
2019-04-06T23:15:47.997Z,15.93
2019-04-06T23:18:20.899Z,15.68
2019-04-06T23:20:52.906Z,16.00
2019-04-06T23:23:24.681Z,16.05
2019-04-06T23:25:56.596Z,15.30
2019-04-06T23:28:28.483Z,16.60
2019-04-06T23:31:00.414Z,15.23
2019-04-06T23:33:32.258Z,16.05
2019-04-06T23:36:04.043Z,15.60
2019-04-06T23:38:36.006Z,15.78
2019-04-06T23:41:07.873Z,16.52
2019-04-06T23:43:39.661Z,15.10
2019-04-06T23:46:11.528Z,16.73
2019-04-06T23:48:43.186Z,17.05
2019-04-06T23:51:16.455Z,15.25
2019-04-06T23:53:48.979Z,16.82
2019-04-06T23:56:20.700Z,17.32
2019-04-06T23:58:53.512Z,17.17
